Tracy, Missouri
Current Conditions -  °F | °C
As of 5:53 PM on Tuesday 25 Nov 2014 (Local Time) from KMCI Reporting Station
Broken Clouds Broken Clouds  
Wind Chill: 23°   Ceiling: 20000
Heat Index: 31°   Visibility: 10mi
Dew Point: 19°   Wind: 9mph
Humidity: 61%   Direction: 170°S
Pressure: 30.07"   Gusts: NA
Location:  39.3588°N, 94.8136°W
Report Text: KMCI 252353Z 17008KT 10SM BKN200 M01/M07 A3007 RMK AO2 SLP191 T10061072 10056 21006 56012
Loading
Personal Weather Stations






























Interactive Weather Map New forecast layout! Learn more

10-Day Weather Forecast

Advertisements
Track Severe Weather on mobile